Time;durP1;ratioP1;P1;durP2;ratioP2;P2;SDS_P1;SDS_P2;PMS_P1;PMS_P2;Temp;Humidity;BMP_temperature;BMP_pressure;BME280_temperature;BME280_humidity;BME280_pressure;Samples;Min_cycle;Max_cycle;Signal;HPM_P1;HPM_P2
2022/04/10 00:03:10;;;;;;;16.30;5.85;;;;;;;12.01;100.00;99001.38;4522500;23;9999927;-68
2022/04/10 00:05:37;;;;;;;15.50;6.05;;;;;;;11.87;100.00;98965.56;5050773;28;20495;-67
2022/04/10 00:08:02;;;;;;;18.25;6.22;;;;;;;12.11;100.00;98921.03;5049046;28;20060;-70
2022/04/10 00:10:28;;;;;;;16.77;5.85;;;;;;;11.98;100.00;98962.50;5050326;28;20471;-68
2022/04/10 00:12:54;;;;;;;12.63;5.70;;;;;;;12.30;100.00;98978.72;5050630;28;20033;-68
2022/04/10 00:15:20;;;;;;;13.95;6.40;;;;;;;12.38;100.00;98997.00;5032847;28;20083;-68
2022/04/10 00:17:45;;;;;;;13.10;6.10;;;;;;;12.56;100.00;98993.47;5050585;28;20039;-67
2022/04/10 00:20:14;;;;;;;18.60;6.22;;;;;;;11.98;100.00;98963.31;5029389;28;20033;-68
2022/04/10 00:22:43;;;;;;;18.60;6.75;;;;;;;12.10;100.00;99010.28;5050645;28;20025;-69
2022/04/10 00:25:11;;;;;;;19.80;6.80;;;;;;;12.06;100.00;99014.69;5050634;28;20037;-68
2022/04/10 00:27:37;;;;;;;17.02;6.82;;;;;;;11.71;100.00;98979.13;5050207;28;20033;-68
2022/04/10 00:30:03;;;;;;;17.20;7.10;;;;;;;12.00;100.00;98968.34;5032874;28;20029;-68
2022/04/10 00:32:29;;;;;;;19.55;6.93;;;;;;;11.93;100.00;98964.44;5050597;28;20085;-68
2022/04/10 00:34:54;;;;;;;19.80;7.10;;;;;;;12.00;100.00;99007.34;5050296;28;20033;-68
2022/04/10 00:37:20;;;;;;;16.67;7.05;;;;;;;11.84;100.00;98986.13;5050547;28;20029;-67
2022/04/10 00:39:45;;;;;;;18.55;6.75;;;;;;;12.16;100.00;98992.16;5050556;28;20032;-68
2022/04/10 00:42:11;;;;;;;19.60;7.25;;;;;;;11.92;100.00;98973.78;5031651;28;20036;-68
2022/04/10 00:44:36;;;;;;;20.88;7.25;;;;;;;11.69;100.00;98983.47;5030592;28;20033;-68
2022/04/10 00:47:03;;;;;;;16.05;6.93;;;;;;;11.61;100.00;98940.53;5030664;28;20033;-68
2022/04/10 00:49:28;;;;;;;17.63;7.05;;;;;;;12.02;100.00;98992.81;5030365;28;20030;-68
2022/04/10 00:51:56;;;;;;;15.80;6.47;;;;;;;12.08;100.00;98997.59;5025441;28;20021;-68
2022/04/10 00:54:25;;;;;;;17.90;7.70;;;;;;;11.85;100.00;98997.94;5050077;28;20028;-67
2022/04/10 00:56:51;;;;;;;17.95;7.82;;;;;;;11.94;100.00;98986.47;5050101;28;20547;-71
2022/04/10 00:59:16;;;;;;;18.98;7.63;;;;;;;12.16;100.00;98997.25;5050429;28;20036;-67
2022/04/10 01:01:45;;;;;;;15.20;6.97;;;;;;;12.51;100.00;98952.94;5050457;28;20033;-68
2022/04/10 01:04:15;;;;;;;19.30;7.50;;;;;;;12.07;100.00;98979.88;5054522;28;20037;-68
2022/04/10 01:06:42;;;;;;;18.65;7.38;;;;;;;11.86;100.00;98970.75;5054089;28;20125;-68
2022/04/10 01:09:08;;;;;;;21.52;7.88;;;;;;;12.18;100.00;98986.06;5053961;28;20029;-67
2022/04/10 01:11:34;;;;;;;17.35;7.68;;;;;;;12.09;100.00;98966.16;5053912;28;20033;-68
2022/04/10 01:14:01;;;;;;;21.42;7.70;;;;;;;11.54;100.00;98936.66;5036084;28;20411;-68
2022/04/10 01:16:28;;;;;;;17.00;6.93;;;;;;;11.63;100.00;98986.28;5054211;28;20090;-68
2022/04/10 01:18:55;;;;;;;18.70;7.10;;;;;;;11.22;100.00;98978.91;5053772;28;20047;-68
2022/04/10 01:21:26;;;;;;;17.73;6.57;;;;;;;11.32;100.00;98953.84;5035810;28;20116;-68
2022/04/10 01:23:53;;;;;;;18.88;7.35;;;;;;;11.37;100.00;98981.63;5036100;28;20032;-68
2022/04/10 01:26:18;;;;;;;18.75;6.85;;;;;;;11.47;100.00;98963.28;5036107;28;20510;-68
2022/04/10 01:29:02;;;;;;;19.08;7.10;;;;;;;11.71;100.00;98992.69;5053814;28;20025;-68
2022/04/10 01:31:29;;;;;;;18.60;6.70;;;;;;;11.71;100.00;98977.41;5054102;28;20021;-68
2022/04/10 01:34:06;;;;;;;21.75;7.60;;;;;;;11.31;100.00;98972.53;5053476;28;20102;-68
2022/04/10 01:36:33;;;;;;;19.27;6.88;;;;;;;11.80;100.00;99002.44;5053381;28;20061;-69
2022/04/10 01:39:00;;;;;;;17.88;6.70;;;;;;;11.27;100.00;98964.22;5053700;28;20078;-68
2022/04/10 01:41:27;;;;;;;19.02;7.05;;;;;;;11.05;100.00;98965.31;5053535;28;20029;-68
2022/04/10 01:43:54;;;;;;;15.70;6.50;;;;;;;11.28;100.00;98985.41;5035759;28;20032;-68
2022/04/10 01:46:21;;;;;;;17.27;6.05;;;;;;;11.40;100.00;98989.94;5035480;28;20060;-66
2022/04/10 01:48:46;;;;;;;21.35;6.55;;;;;;;11.42;100.00;98949.13;5053532;28;20083;-67
2022/04/10 01:51:12;;;;;;;16.23;6.78;;;;;;;11.04;100.00;98953.47;5053162;28;20029;-68
2022/04/10 01:53:38;;;;;;;18.95;6.63;;;;;;;11.35;100.00;98979.13;5034784;28;20044;-68
2022/04/10 01:56:05;;;;;;;16.27;6.60;;;;;;;11.03;100.00;98969.66;5053210;28;20417;-67
2022/04/10 01:58:32;;;;;;;22.98;7.18;;;;;;;10.85;100.00;98924.72;5053134;28;20029;-68
2022/04/10 02:00:57;;;;;;;22.73;7.55;;;;;;;11.32;100.00;98976.75;5038765;28;20029;-68
2022/04/10 02:03:23;;;;;;;17.92;6.47;;;;;;;11.17;100.00;98952.84;5033637;28;20111;-69
2022/04/10 02:05:48;;;;;;;15.77;5.97;;;;;;;11.12;100.00;98961.59;5015152;28;20033;-68
2022/04/10 02:08:14;;;;;;;16.38;6.80;;;;;;;11.16;100.00;98958.00;5032990;28;20292;-68
2022/04/10 02:10:40;;;;;;;16.58;6.28;;;;;;;11.25;100.00;98973.66;5033286;28;20030;-68
2022/04/10 02:13:09;;;;;;;18.42;6.47;;;;;;;11.40;100.00;98989.94;5014698;28;20052;-68
2022/04/10 02:15:36;;;;;;;20.42;6.63;;;;;;;11.52;100.00;98984.25;5013705;28;20025;-68
2022/04/10 02:18:02;;;;;;;20.20;6.30;;;;;;;11.41;100.00;98986.47;5017334;28;20120;-67
2022/04/10 02:20:28;;;;;;;19.45;6.32;;;;;;;11.66;100.00;98984.47;5052989;28;20506;-68
2022/04/10 02:22:53;;;;;;;23.23;6.93;;;;;;;11.49;100.00;98956.41;5053474;28;20044;-71
2022/04/10 02:25:19;;;;;;;16.08;6.20;;;;;;;11.25;100.00;98975.41;5035037;28;20561;-68
2022/04/10 02:27:44;;;;;;;20.65;7.35;;;;;;;11.12;100.00;98938.69;5034766;28;20040;-68
2022/04/10 02:30:10;;;;;;;20.50;7.05;;;;;;;10.89;100.00;98949.13;5052437;28;20476;-69
2022/04/10 02:32:36;;;;;;;19.58;6.45;;;;;;;11.33;100.00;98983.47;5052494;28;20471;-68
2022/04/10 02:35:02;;;;;;;18.60;6.85;;;;;;;11.41;100.00;98968.66;5052409;28;20061;-69
2022/04/10 02:37:27;;;;;;;19.77;6.75;;;;;;;11.02;100.00;98962.91;5052276;28;20025;-67
2022/04/10 02:39:52;;;;;;;18.00;6.25;;;;;;;10.84;100.00;98989.16;5052769;28;20108;-69
2022/04/10 02:42:18;;;;;;;17.33;6.50;;;;;;;10.74;100.00;98952.34;5052416;28;20029;-69
2022/04/10 02:44:43;;;;;;;18.85;7.35;;;;;;;10.96;100.00;98974.19;5035060;28;20466;-67
2022/04/10 02:47:08;;;;;;;19.15;7.35;;;;;;;11.26;100.00;98980.41;5032277;28;20142;-69
2022/04/10 02:49:34;;;;;;;18.50;6.82;;;;;;;10.84;100.00;98933.22;5032223;28;20029;-68
2022/04/10 02:51:59;;;;;;;24.58;7.28;;;;;;;11.42;100.00;98962.69;5014152;28;20041;-68
2022/04/10 02:54:25;;;;;;;16.25;6.60;;;;;;;11.31;100.00;98982.72;5032343;28;20037;-69
2022/04/10 02:56:50;;;;;;;23.67;7.65;;;;;;;11.14;100.00;98975.06;5031946;28;20033;-68
2022/04/10 02:59:15;;;;;;;16.90;6.82;;;;;;;11.30;100.00;98969.19;5032369;28;20037;-68
2022/04/10 03:01:41;;;;;;;18.17;6.50;;;;;;;10.72;100.00;98947.34;5032479;28;20033;-68
2022/04/10 03:04:06;;;;;;;20.20;7.80;;;;;;;10.82;100.00;98970.59;5014193;28;20511;-68
2022/04/10 03:06:32;;;;;;;26.83;10.25;;;;;;;10.70;100.00;98974.53;5014210;28;20433;-68
2022/04/10 03:08:57;;;;;;;18.80;8.55;;;;;;;10.50;100.00;98953.47;5032103;28;20034;-68
2022/04/10 03:11:25;;;;;;;18.00;7.22;;;;;;;10.64;100.00;98938.41;5032029;28;20431;-67
2022/04/10 03:13:50;;;;;;;18.90;8.30;;;;;;;10.74;100.00;98970.97;5031607;28;20036;-67
2022/04/10 03:16:16;;;;;;;21.70;9.10;;;;;;;10.62;100.00;98966.44;5031690;28;20033;-68
2022/04/10 03:18:42;;;;;;;20.20;8.13;;;;;;;10.65;100.00;99004.44;5013693;28;20033;-68
2022/04/10 03:21:08;;;;;;;20.60;7.22;;;;;;;10.32;100.00;98962.69;5031529;28;20108;-68
2022/04/10 03:23:34;;;;;;;20.92;7.18;;;;;;;10.37;100.00;98966.69;5031890;28;20127;-68
2022/04/10 03:25:59;;;;;;;21.08;7.43;;;;;;;10.62;100.00;98984.22;5031739;28;20120;-67
2022/04/10 03:28:25;;;;;;;24.30;8.43;;;;;;;10.81;100.00;98968.97;5024411;28;20021;-70
2022/04/10 03:30:50;;;;;;;19.13;6.78;;;;;;;10.20;100.00;98978.47;5033631;28;20029;-69
2022/04/10 03:33:15;;;;;;;18.98;7.90;;;;;;;10.19;100.00;98953.94;5033133;28;20471;-69
2022/04/10 03:35:41;;;;;;;22.05;8.65;;;;;;;10.24;100.00;98962.22;5051381;28;20079;-68
2022/04/10 03:38:06;;;;;;;28.88;9.50;;;;;;;10.07;100.00;98950.19;5051260;28;20669;-68
2022/04/10 03:40:32;;;;;;;20.13;7.93;;;;;;;10.48;100.00;98962.88;5051109;28;20033;-68
2022/04/10 03:42:57;;;;;;;22.05;8.20;;;;;;;10.55;100.00;98971.84;5051666;28;20067;-68
2022/04/10 03:45:23;;;;;;;19.08;6.63;;;;;;;10.81;100.00;98979.16;5051270;28;20537;-68
2022/04/10 03:47:48;;;;;;;15.60;6.70;;;;;;;10.80;100.00;98985.94;5050898;28;20035;-68
2022/04/10 03:50:14;;;;;;;17.20;6.72;;;;;;;10.58;100.00;98956.50;5051146;28;20029;-67
2022/04/10 03:52:39;;;;;;;22.40;7.38;;;;;;;10.59;100.00;98973.38;5028370;28;20037;-68
2022/04/10 03:55:05;;;;;;;21.67;7.13;;;;;;;10.54;100.00;98986.25;5030796;28;20462;-68
2022/04/10 03:57:30;;;;;;;18.98;6.50;;;;;;;9.78;100.00;98932.84;5030951;28;20026;-68
2022/04/10 03:59:56;;;;;;;15.70;6.68;;;;;;;10.12;100.00;98966.06;5031149;28;20083;-69
2022/04/10 04:02:22;;;;;;;18.40;6.38;;;;;;;10.55;100.00;98965.06;5012968;28;20049;-69
2022/04/10 04:04:51;;;;;;;17.92;6.65;;;;;;;10.26;100.00;98994.25;5013201;28;20090;-69
2022/04/10 04:07:17;;;;;;;21.02;6.82;;;;;;;10.40;100.00;99001.28;5013313;28;20813;-68
2022/04/10 04:09:42;;;;;;;17.80;6.57;;;;;;;10.15;100.00;98938.03;5012043;28;20125;-68
2022/04/10 04:12:08;;;;;;;19.30;6.80;;;;;;;10.32;100.00;98981.28;5030584;28;20120;-68
2022/04/10 04:14:37;;;;;;;18.08;6.53;;;;;;;10.57;100.00;98965.81;5030802;28;20126;-68
2022/04/10 04:17:03;;;;;;;20.65;7.20;;;;;;;10.54;100.00;98965.94;5030558;28;20026;-70
2022/04/10 04:19:28;;;;;;;22.05;7.72;;;;;;;10.32;100.00;98949.97;5013092;28;20052;-70
2022/04/10 04:21:53;;;;;;;20.00;7.78;;;;;;;10.76;100.00;98997.13;5012841;28;20040;-70
2022/04/10 04:24:19;;;;;;;18.88;7.65;;;;;;;10.99;100.00;98958.78;5030713;28;20034;-70
2022/04/10 04:26:44;;;;;;;18.23;7.47;;;;;;;10.87;100.00;98959.38;5012903;28;20569;-70
2022/04/10 04:29:10;;;;;;;18.08;7.38;;;;;;;10.87;100.00;98979.69;5030607;28;20538;-70
2022/04/10 04:31:35;;;;;;;21.95;7.72;;;;;;;11.20;100.00;98987.50;5012602;28;20033;-70
2022/04/10 04:34:01;;;;;;;25.77;7.70;;;;;;;11.00;100.00;98949.44;5030754;28;20027;-70
2022/04/10 04:36:26;;;;;;;20.48;7.32;;;;;;;11.15;100.00;98938.56;5030453;28;20032;-69
2022/04/10 04:38:53;;;;;;;22.75;7.50;;;;;;;11.58;100.00;98994.16;5012942;28;20427;-70
2022/04/10 04:41:18;;;;;;;17.35;7.13;;;;;;;11.69;100.00;98956.28;5030464;28;20026;-70
2022/04/10 04:43:44;;;;;;;18.58;7.90;;;;;;;11.62;100.00;98966.81;5030487;28;20037;-70
2022/04/10 04:46:09;;;;;;;19.13;8.10;;;;;;;12.08;100.00;98989.97;5012519;28;20025;-70
2022/04/10 04:48:35;;;;;;;23.67;8.63;;;;;;;12.11;100.00;98966.06;5030485;28;20032;-70
2022/04/10 04:51:02;;;;;;;26.85;11.98;;;;;;;12.05;100.00;98969.75;5030826;28;20033;-69
2022/04/10 04:53:28;;;;;;;21.05;8.50;;;;;;;11.83;100.00;98992.09;5030438;28;20064;-70
2022/04/10 04:55:53;;;;;;;21.60;7.93;;;;;;;11.91;100.00;98997.63;5030451;28;20037;-69
2022/04/10 04:58:19;;;;;;;19.17;8.02;;;;;;;11.95;100.00;98977.91;5030353;28;20036;-70
2022/04/10 05:00:45;;;;;;;17.73;7.88;;;;;;;12.58;100.00;98995.03;5012298;28;20025;-68
2022/04/10 05:03:11;;;;;;;20.75;7.68;;;;;;;12.50;100.00;98950.47;5029981;28;20107;-70
2022/04/10 05:05:36;;;;;;;29.63;10.13;;;;;;;12.74;100.00;98990.78;5030777;28;20159;-70
2022/04/10 05:08:03;;;;;;;26.55;11.43;;;;;;;12.44;100.00;99006.88;5030335;28;20022;-69
2022/04/10 05:10:29;;;;;;;18.80;9.30;;;;;;;12.21;100.00;99002.94;5030161;28;20035;-70
2022/04/10 05:12:54;;;;;;;22.77;8.98;;;;;;;12.36;100.00;98993.69;5030241;28;20120;-69
2022/04/10 05:15:20;;;;;;;19.05;7.80;;;;;;;11.95;100.00;98978.75;5029828;28;20055;-70
2022/04/10 05:17:45;;;;;;;19.88;7.68;;;;;;;11.78;100.00;98991.50;5012311;28;20030;-71
2022/04/10 05:20:11;;;;;;;25.25;8.50;;;;;;;12.22;100.00;98986.75;5012563;28;20033;-69
2022/04/10 05:22:36;;;;;;;20.48;7.65;;;;;;;13.05;100.00;99005.34;5012495;28;20099;-70
2022/04/10 05:25:02;;;;;;;23.75;7.22;;;;;;;12.99;100.00;99003.06;5029841;28;20041;-70
2022/04/10 05:27:27;;;;;;;18.05;7.80;;;;;;;12.78;100.00;99001.66;5012286;28;20025;-70
2022/04/10 05:29:52;;;;;;;20.13;7.95;;;;;;;12.81;100.00;98981.94;5029757;28;20438;-68
2022/04/10 05:32:18;;;;;;;22.33;8.02;;;;;;;12.87;100.00;98970.56;5011984;28;20029;-68
2022/04/10 05:34:45;;;;;;;20.05;7.28;;;;;;;13.25;100.00;98982.09;5029891;28;20033;-68
2022/04/10 05:37:10;;;;;;;18.63;7.40;;;;;;;13.45;100.00;98981.81;5030119;28;20038;-68
2022/04/10 05:39:38;;;;;;;22.90;7.03;;;;;;;13.55;100.00;98990.59;5030204;28;20033;-70
2022/04/10 05:42:04;;;;;;;21.80;7.05;;;;;;;13.34;100.00;98996.09;5028606;28;20034;-69
2022/04/10 05:44:29;;;;;;;18.00;6.85;;;;;;;13.48;100.00;98984.22;5029735;28;20040;-69
2022/04/10 05:46:55;;;;;;;21.02;6.93;;;;;;;14.20;100.00;98976.59;5029865;28;20025;-70
2022/04/10 05:49:20;;;;;;;22.90;7.22;;;;;;;14.29;100.00;98975.28;5013433;28;20029;-70
2022/04/10 05:51:47;;;;;;;20.73;7.25;;;;;;;13.79;100.00;98910.03;5033319;28;20062;-70
2022/04/10 05:54:14;;;;;;;21.58;6.28;;;;;;;13.91;100.00;98944.25;5015404;28;20559;-69
2022/04/10 05:56:39;;;;;;;18.52;6.35;;;;;;;14.67;100.00;98986.59;5040502;28;20029;-66
2022/04/10 05:59:05;;;;;;;17.90;7.10;;;;;;;15.00;100.00;98988.81;5052646;28;20040;-69
2022/04/10 06:01:30;;;;;;;25.83;7.07;;;;;;;15.02;100.00;98999.78;5053279;28;20024;-66
2022/04/10 06:03:55;;;;;;;19.17;6.72;;;;;;;14.80;100.00;98943.19;5053139;28;20049;-67
2022/04/10 06:06:21;;;;;;;20.48;6.80;;;;;;;15.90;100.00;98988.16;5049346;28;20028;-68
2022/04/10 06:08:46;;;;;;;20.33;6.35;;;;;;;16.03;100.00;98983.00;5052017;28;20189;-67
2022/04/10 06:11:12;;;;;;;18.77;6.35;;;;;;;15.40;100.00;98970.06;5052717;28;20033;-67
2022/04/10 06:13:37;;;;;;;20.95;6.97;;;;;;;15.75;100.00;98990.88;5051570;28;20108;-67
2022/04/10 06:16:03;;;;;;;18.75;6.00;;;;;;;16.29;100.00;98982.09;5052489;28;20262;-68
2022/04/10 06:18:28;;;;;;;19.70;6.07;;;;;;;16.22;100.00;98983.44;5034575;28;20087;-68
2022/04/10 06:20:54;;;;;;;19.70;6.43;;;;;;;16.03;100.00;98980.44;5048309;28;20033;-69
2022/04/10 06:23:21;;;;;;;21.80;6.00;;;;;;;16.56;100.00;98980.25;5072907;28;20111;-69
2022/04/10 06:25:47;;;;;;;20.15;6.03;;;;;;;16.14;100.00;98993.41;5054582;28;20033;-69
2022/04/10 06:28:12;;;;;;;16.83;5.82;;;;;;;16.56;100.00;98966.63;5072655;28;20055;-68
2022/04/10 06:30:37;;;;;;;17.35;5.80;;;;;;;16.53;100.00;98989.91;5072656;28;20502;-68
2022/04/10 06:33:03;;;;;;;17.85;5.75;;;;;;;17.30;100.00;98996.41;5072596;28;20123;-69
2022/04/10 06:35:28;;;;;;;18.25;5.70;;;;;;;17.17;100.00;98961.41;5038676;28;20423;-68
2022/04/10 06:37:54;;;;;;;18.23;6.28;;;;;;;17.03;100.00;98954.69;5014597;28;20044;-69
2022/04/10 06:40:19;;;;;;;19.80;5.65;;;;;;;17.30;100.00;98957.03;5032269;28;20040;-67
2022/04/10 06:42:44;;;;;;;15.93;5.70;;;;;;;17.39;100.00;98987.19;5032129;28;20033;-68
2022/04/10 06:45:10;;;;;;;20.45;6.10;;;;;;;17.43;100.00;98992.97;5014689;28;20543;-68
2022/04/10 06:47:35;;;;;;;16.75;5.50;;;;;;;17.18;100.00;98989.56;5013434;28;20021;-67
2022/04/10 06:50:01;;;;;;;17.48;5.53;;;;;;;16.94;100.00;98986.13;5014256;28;20033;-68
2022/04/10 06:52:26;;;;;;;17.60;5.55;;;;;;;16.50;100.00;98965.28;5031228;28;20419;-67
2022/04/10 06:54:52;;;;;;;16.42;5.78;;;;;;;17.48;100.00;98991.69;5031359;28;20025;-68
2022/04/10 06:57:17;;;;;;;18.10;6.25;;;;;;;17.40;100.00;98955.44;5032077;28;20026;-68
2022/04/10 06:59:43;;;;;;;22.20;5.97;;;;;;;17.89;100.00;98989.53;5031286;28;20255;-67
2022/04/10 07:02:09;;;;;;;18.85;6.10;;;;;;;18.57;100.00;98962.97;5031871;28;20099;-67
2022/04/10 07:04:34;;;;;;;15.98;5.53;;;;;;;18.07;100.00;98985.59;5031468;28;20518;-68
2022/04/10 07:06:59;;;;;;;16.70;5.25;;;;;;;17.82;100.00;98972.09;5013262;28;20087;-68
2022/04/10 07:09:25;;;;;;;16.05;5.65;;;;;;;18.38;100.00;98994.38;5030902;28;20510;-67
2022/04/10 07:11:50;;;;;;;17.23;5.78;;;;;;;18.69;100.00;98965.41;5030879;28;20029;-67
2022/04/10 07:14:15;;;;;;;16.77;5.70;;;;;;;18.05;100.00;99002.91;5030543;28;20481;-68
2022/04/10 07:16:41;;;;;;;15.43;5.53;;;;;;;18.65;100.00;98958.88;5031097;28;20037;-65
2022/04/10 07:19:06;;;;;;;16.00;5.43;;;;;;;18.44;100.00;98951.97;5030896;28;20480;-65
2022/04/10 07:24:16;;;;;;;15.98;4.88;;;;;;;19.07;100.00;98977.88;5031644;28;20096;-66
2022/04/10 07:26:41;;;;;;;18.40;5.72;;;;;;;18.27;100.00;99004.69;5013378;28;20033;-65
2022/04/10 07:29:10;;;;;;;17.10;5.47;;;;;;;18.03;100.00;99006.50;5031472;28;20029;-65
2022/04/10 07:31:35;;;;;;;14.82;4.88;;;;;;;17.73;100.00;98985.59;5031349;28;20026;-65
2022/04/10 07:34:01;;;;;;;16.67;5.63;;;;;;;17.51;100.00;98991.47;5013817;28;20387;-65
2022/04/10 07:36:26;;;;;;;18.13;5.25;;;;;;;17.74;100.00;99002.69;5030984;28;20403;-64
2022/04/10 07:38:52;;;;;;;17.30;5.40;;;;;;;17.70;100.00;98976.38;5030382;28;20480;-65
2022/04/10 07:41:17;;;;;;;14.43;5.22;;;;;;;17.75;100.00;98981.16;5029169;28;20029;-66
2022/04/10 07:43:42;;;;;;;24.05;6.22;;;;;;;17.48;100.00;98981.41;5030669;28;20465;-66
2022/04/10 07:48:52;;;;;;;22.55;6.72;;;;;;;17.62;100.00;98947.84;5029888;28;20505;-66
2022/04/10 07:51:17;;;;;;;17.67;6.38;;;;;;;17.96;100.00;98977.03;5029682;28;20021;-66
2022/04/10 07:53:42;;;;;;;17.65;6.60;;;;;;;17.70;100.00;98950.69;5029846;28;20076;-66
2022/04/10 07:56:09;;;;;;;16.55;6.05;;;;;;;17.71;100.00;98966.91;5020835;28;20087;-67
2022/04/10 07:58:36;;;;;;;18.40;6.35;;;;;;;17.93;100.00;98987.53;5045023;28;20033;-65
2022/04/10 08:01:02;;;;;;;24.15;9.00;;;;;;;17.85;100.00;98980.41;5028906;28;20029;-64
2022/04/10 08:03:27;;;;;;;37.22;15.38;;;;;;;17.92;100.00;98980.78;5029849;28;20778;-64
2022/04/10 08:05:53;;;;;;;16.40;5.80;;;;;;;17.47;100.00;98976.38;5043330;28;20230;-65
2022/04/10 08:08:18;;;;;;;17.77;5.75;;;;;;;17.33;100.00;98960.19;5048866;28;20028;-64
2022/04/10 08:10:44;;;;;;;17.40;5.80;;;;;;;17.56;100.00;98950.88;5050628;28;20081;-64
2022/04/10 08:13:09;;;;;;;17.65;6.00;;;;;;;17.40;100.00;98949.47;5018596;28;20044;-64
2022/04/10 08:15:35;;;;;;;14.13;5.25;;;;;;;17.43;100.00;98970.63;5012564;28;20033;-64
2022/04/10 08:18:00;;;;;;;13.32;5.68;;;;;;;17.33;100.00;98931.94;5030721;28;20464;-65
2022/04/10 08:20:26;;;;;;;14.90;5.80;;;;;;;17.76;100.00;98969.97;5030577;28;20039;-65
2022/04/10 08:22:53;;;;;;;16.70;7.65;;;;;;;17.79;100.00;98967.16;5030483;28;20030;-67
2022/04/10 08:25:23;;;;;;;32.75;14.02;;;;;;;17.99;100.00;98964.75;5030181;28;20415;-65
2022/04/10 08:27:49;;;;;;;18.08;6.50;;;;;;;17.61;100.00;98971.09;5028778;28;20116;-65
2022/04/10 08:30:14;;;;;;;15.50;5.30;;;;;;;17.73;100.00;98975.31;5030088;28;20557;-65
2022/04/10 08:32:42;;;;;;;18.42;5.85;;;;;;;17.76;100.00;98955.38;5030441;28;20030;-64
2022/04/10 08:35:08;;;;;;;21.95;6.07;;;;;;;17.59;100.00;98921.56;5030153;28;20033;-66
2022/04/10 08:37:34;;;;;;;22.75;8.70;;;;;;;17.86;100.00;98942.66;5030137;28;20037;-67
2022/04/10 08:40:00;;;;;;;19.83;7.93;;;;;;;17.85;100.00;98943.56;5029538;28;20040;-67
2022/04/10 08:42:26;;;;;;;25.08;10.77;;;;;;;17.87;100.00;98942.53;5042951;28;20052;-66
2022/04/10 08:44:55;;;;;;;15.65;6.28;;;;;;;17.89;100.00;98966.38;5012505;28;20034;-68
2022/04/10 08:47:21;;;;;;;20.10;7.00;;;;;;;17.96;100.00;98971.91;5012558;28;20025;-67
2022/04/10 08:49:51;;;;;;;25.88;6.93;;;;;;;17.82;100.00;98918.91;5012444;28;20468;-67
2022/04/10 08:52:18;;;;;;;17.98;6.70;;;;;;;17.97;100.00;98947.78;5033785;28;20091;-66
2022/04/10 08:54:44;;;;;;;20.38;6.63;;;;;;;17.62;100.00;98936.75;5049709;28;20485;-68
2022/04/10 08:57:10;;;;;;;16.92;5.93;;;;;;;17.86;100.00;98940.91;5042444;28;20479;-68
2022/04/10 08:59:36;;;;;;;18.15;6.35;;;;;;;17.81;100.00;98929.28;5012366;28;20030;-67
2022/04/10 09:02:02;;;;;;;15.77;5.55;;;;;;;17.97;100.00;98938.34;5029708;28;20428;-69
2022/04/10 09:04:28;;;;;;;16.13;5.80;;;;;;;18.03;100.00;98947.34;5030012;28;20041;-66
2022/04/10 09:07:05;;;;;;;19.67;8.13;;;;;;;17.80;100.00;98967.06;5029596;28;20037;-67
2022/04/10 09:09:32;;;;;;;18.48;6.72;;;;;;;18.11;100.00;98957.88;5022947;28;20029;-66
2022/04/10 09:11:58;;;;;;;19.73;6.57;;;;;;;17.88;100.00;98926.19;5049832;28;20497;-66
2022/04/10 09:14:33;;;;;;;14.50;6.03;;;;;;;18.11;100.00;98937.28;5049444;28;20041;-66
2022/04/10 09:17:15;;;;;;;18.20;6.43;;;;;;;18.34;100.00;98933.00;5049313;28;20392;-65
2022/04/10 09:19:43;;;;;;;;;;;;;;;18.16;100.00;98953.22;5049673;28;20480;-66
2022/04/10 09:22:35;;;;;;;27.00;11.25;;;;;;;18.74;100.00;98947.00;5049394;28;19919;-66
2022/04/10 09:25:07;;;;;;;16.63;7.10;;;;;;;18.47;100.00;98954.31;5053786;28;20465;-67
2022/04/10 09:27:35;;;;;;;20.15;6.60;;;;;;;18.51;100.00;98917.91;5053331;28;20513;-64
2022/04/10 09:30:01;;;;;;;19.40;6.68;;;;;;;18.87;100.00;98938.22;5053421;28;20094;-64
2022/04/10 09:32:39;;;;;;;18.38;6.88;;;;;;;18.54;100.00;98915.09;5053323;28;20116;-65
2022/04/10 09:35:05;;;;;;;14.07;5.72;;;;;;;18.82;100.00;98939.50;5035435;28;20033;-65
2022/04/10 09:37:54;;;;;;;25.48;9.30;;;;;;;18.69;100.00;98911.34;5035678;28;20045;-66
2022/04/10 09:40:27;;;;;;;31.60;11.38;;;;;;;18.55;100.00;98932.19;5053382;28;20099;-66
2022/04/10 09:43:04;;;;;;;23.63;7.28;;;;;;;18.65;100.00;98927.97;5053006;28;20041;-66
2022/04/10 09:45:30;;;;;;;18.60;7.20;;;;;;;18.67;100.00;98930.41;5015017;28;20033;-67
2022/04/10 09:47:55;;;;;;;14.45;5.68;;;;;;;18.01;100.00;98918.34;5033122;28;20033;-65
2022/04/10 09:50:33;;;;;;;14.30;5.32;;;;;;;18.34;100.00;98936.38;5033207;28;20463;-65
2022/04/10 09:53:06;;;;;;;15.15;6.43;;;;;;;18.12;100.00;98934.59;5033313;28;20038;-65
2022/04/10 09:55:33;;;;;;;22.42;8.20;;;;;;;18.28;100.00;98908.56;5042256;28;20085;-67
2022/04/10 09:58:00;;;;;;;15.80;6.35;;;;;;;18.00;100.00;98921.88;5052889;28;20053;-68
2022/04/10 10:00:26;;;;;;;11.85;7.38;;;;;;;17.12;100.00;98928.34;5052940;28;20390;-67
2022/04/10 10:02:53;;;;;;;14.10;7.50;;;;;;;17.06;100.00;98928.78;5048475;28;20551;-67
2022/04/10 10:05:19;;;;;;;15.73;10.07;;;;;;;16.63;100.00;98917.34;5015009;28;20039;-67
2022/04/10 10:07:48;;;;;;;16.67;11.32;;;;;;;16.90;100.00;98945.38;5032494;28;20116;-67
2022/04/10 10:10:17;;;;;;;13.43;10.00;;;;;;;16.74;100.00;98930.22;5032723;28;20511;-67
2022/04/10 10:12:45;;;;;;;14.32;10.07;;;;;;;16.46;100.00;98913.31;5041410;28;20075;-67
2022/04/10 10:15:11;;;;;;;14.98;10.30;;;;;;;16.57;100.00;98948.56;5052122;28;20033;-67
2022/04/10 10:17:37;;;;;;;17.35;11.43;;;;;;;16.45;100.00;98957.06;5021102;28;20030;-68
2022/04/10 10:20:05;;;;;;;14.60;12.05;;;;;;;16.40;100.00;98964.25;5052620;28;20029;-67
2022/04/10 10:22:31;;;;;;;19.77;12.88;;;;;;;16.44;100.00;98957.97;5052302;28;20092;-69
2022/04/10 10:25:15;;;;;;;23.45;15.48;;;;;;;16.32;100.00;98951.94;5047919;28;20064;-68
2022/04/10 10:28:02;;;;;;;21.20;14.88;;;;;;;16.12;100.00;98972.16;5032761;28;20021;-68
2022/04/10 10:30:43;;;;;;;17.00;13.35;;;;;;;15.98;100.00;98975.66;5014837;28;20468;-68
2022/04/10 10:33:17;;;;;;;13.02;11.73;;;;;;;15.79;100.00;98971.81;5047835;28;20532;-66
2022/04/10 10:35:49;;;;;;;15.85;13.18;;;;;;;15.89;100.00;98980.53;5050875;28;20035;-66
2022/04/10 10:38:24;;;;;;;16.40;12.73;;;;;;;15.70;100.00;98985.22;5051926;28;20028;-66
2022/04/10 10:40:51;;;;;;;17.73;12.75;;;;;;;15.52;100.00;98951.38;5051695;28;20044;-68
2022/04/10 10:43:23;;;;;;;18.50;13.90;;;;;;;15.07;100.00;98990.94;5051882;28;20033;-67
2022/04/10 10:45:52;;;;;;;20.42;13.27;;;;;;;15.06;100.00;98970.53;5051620;28;20060;-67
2022/04/10 10:48:47;;;;;;;17.52;14.00;;;;;;;14.82;100.00;98983.09;5051425;28;20056;-66
2022/04/10 10:51:12;;;;;;;17.85;13.93;;;;;;;14.29;100.00;98942.03;5030247;28;20499;-67
2022/04/10 10:53:46;;;;;;;16.20;14.48;;;;;;;14.48;100.00;98983.53;5052007;28;20068;-68
2022/04/10 10:56:17;;;;;;;21.48;15.15;;;;;;;14.70;100.00;98982.13;5051822;28;20024;-65
2022/04/10 10:58:44;;;;;;;17.85;14.60;;;;;;;14.45;100.00;98942.78;5052258;28;20025;-68
2022/04/10 11:01:18;;;;;;;17.08;13.95;;;;;;;14.83;100.00;98968.56;5052055;28;20559;-66
2022/04/10 11:04:03;;;;;;;17.13;14.70;;;;;;;14.40;100.00;98970.38;5052010;28;20057;-70
2022/04/10 11:06:30;;;;;;;17.38;13.82;;;;;;;14.01;100.00;98947.09;5051776;28;20083;-67
2022/04/10 11:09:16;;;;;;;16.05;14.02;;;;;;;14.32;100.00;98919.66;5051647;28;20553;-68
2022/04/10 11:11:41;;;;;;;16.92;12.68;;;;;;;14.07;100.00;98921.19;5051287;28;20029;-65
2022/04/10 11:14:28;;;;;;;13.70;12.30;;;;;;;13.75;100.00;98917.97;5051427;28;20033;-67
2022/04/10 11:16:54;;;;;;;14.50;12.85;;;;;;;14.09;100.00;98932.13;5051465;28;20021;-67
2022/04/10 11:19:23;;;;;;;15.20;12.18;;;;;;;13.60;100.00;98909.47;5051300;28;20719;-68
2022/04/10 11:21:48;;;;;;;14.82;12.02;;;;;;;13.80;100.00;98941.53;5051413;28;20025;-69
2022/04/10 11:24:22;;;;;;;16.30;12.70;;;;;;;13.60;100.00;98942.66;5051350;28;20514;-69